Terminal Aerodrome Forecast
Issued by NWS

Home | Current Version | Previous Version | Text Only | Print | Product List | Glossary On
Versions: 1 2 3 4 5 6 7 8 9 10 11 12 13 14 15 16 17 18 19 20 21
000
FTUS45 KRIW 312300
TAFPNA
TAF
KPNA 312327Z 0100/0124 24007KT P6SM VCSH SCT080
     FM010300 29006KT P6SM FEW090
     FM012000 VRB11G18KT P6SM VCTS SCT090CB
      AMD LTD TO CLD VIS AND WIND=

USA.gov is the U.S. government's official web portal to all federal, state and local government web resources and services.